Portada
METAR-TAF:

METAR-TAF

Aeroports :

Doha, Qatar

latitud: 25-16-23N, longitud: 51-36-29E, altitud: 4 m

Observació

L'informe es va fer fa 56 minuts, a les 10:00 UTC
Vent 4 kt del Est
Temperatura 43°C
Humitat 14%
Pressió 998 hPa
Visibilitat 10 km o més
sense núvols per sota de 1500 mi sense presència de cumulonimbus.

METAR: OTHH 231000Z 09004KT CAVOK 43/10 Q0998 NOSIG

Hora: 13:56 (10:56 UTC)

Pronòstic

L'informe es va fer fa 5 hores i 42 minuts, a les 05:14 UTC
Pronòstic vàlid del 23 a les 06 UTC al 24 a les 12 UTC
Vent 7 kt del Est
Visibilitat: 8000 m
Temporalment
l' 23 a les 06 UTC al 23 a les 17 UTC
Vent 7 kt del Sud/Sud-Est
Temporalment
l' 23 a les 19 UTC al 24 a les 03 UTC
Vent 3 kt amb direcció variable
Visibilitat: 4900 m
calitja,

TAF: OTHH 230514Z 2306/2412 08007KT 8000 NSC TEMPO 2306/2317 15007KT TEMPO 2319/2403 VRB03KT 4900 HZ

Observacions i pronòstics meteorològics de més de 4000 aeroports (METAR i TAF).

Les estacions disponibles són els punts grocs i vermells al mapa.

Posi el ratolí al punt desitjat per veure el nom de l'estació.

Feu clic per veure les observacions i els pronòstics meteorològics.

Per canviar el mapa: feu clic els botons verds amb una creu de color negre per apropar; al botó verd amb un guió per allunyar la imatge; o en les fletxes verdes per a mapes adjacents.


METAR-TAF: